Farlington, Kansas
Current Conditions -  °F | °C
As of 12:55 PM on Tuesday 27 Jan 2015 (Local Time) from KPTS Reporting Station
Clear Clear  
Wind Chill: 57°   Ceiling: Unl
Heat Index: 57°   Visibility: 10mi
Dew Point: 37°   Wind: 3mph
Humidity: 46%   Direction: 120°ESE
Pressure: 30.12"   Gusts: NA
Location:  37.62°N, 94.83°W
Report Text: KPTS 271855Z AUTO 12003KT 10SM CLR 14/03 A3012 RMK AO2 T01400026
Loading
Personal Weather Stations






























Interactive Weather Map New forecast layout! Learn more

10-Day Weather Forecast

Advertisements
Track Severe Weather on mobile